Solidarnosc (vanuatu) — YJZC9 — position and weather

sailwx.info

Track history (hours):
 
Tides and Currents Weather Stations Pressure Air Temp Water Temp Dewpoint Dewpoint Depression Visibility Wind Speed Wind Dir Waves Ship Positions

Solidarnosc (vanuatu)

Last reported at 2014-Aug-30 06:32 UTC. Time now 2014-Aug-30 22:30 UTC.
Position N 36°28' E 014°41'.

Length 229 m; beam 32 m.

Type: Ship. MMSI: 576005000.

Date/timePositionNaut miles runAvg speedWind from/ knotsBaromVisibWave heightAir tempDewpointWater temp
2014-Aug-30 06:32N 36°28' E 014°41'1111.1
2014-Aug-30 05:33N 36°32' E 014°29'1111.1
2014-Aug-30 04:33N 36°35' E 014°16'1111.0
2014-Aug-30 03:33N 36°37' E 014°02'1111.0
2014-Aug-30 02:33N 36°40' E 013°49'1111.1
2014-Aug-30 01:33N 36°43' E 013°36'1211.1
2014-Aug-30 00:28N 36°46' E 013°21'1011.2
2014-Aug-29 23:33N 36°48' E 013°09'1111.2
2014-Aug-29 22:33N 36°50' E 012°55'1111.1
2014-Aug-29 21:33N 36°53' E 012°41'1111.1
2014-Aug-29 20:33N 36°55' E 012°28'2310.9
2014-Aug-29 18:27N 37°01' E 012°00'1211.3
2014-Aug-29 17:21N 37°08' E 011°47'911.3
2014-Aug-29 16:33N 37°12' E 011°37'1211.2
2014-Aug-29 15:31N 37°17' E 011°24'1110.8
2014-Aug-29 14:29N 37°21' E 011°11'1111.2
2014-Aug-29 13:31N 37°24' E 010°58'1111.3
2014-Aug-29 12:33N 37°27' E 010°45'1111.3
2014-Aug-29 11:33N 37°30' E 010°31'1211.2
2014-Aug-29 10:31N 37°33' E 010°17'1611.1
2014-Aug-29 09:07N 37°33' E 009°57'5611.9
2014-Aug-29 04:23N 37°19' E 008°49'1411.9
2014-Aug-29 03:10N 37°19' E 008°30'711.7
2014-Aug-29 02:33N 37°19' E 008°22'1411.4
2014-Aug-29 01:22N 37°19' E 008°04'911.1
2014-Aug-29 00:33N 37°19' E 007°53'5811.7
2014-Aug-28 19:33N 37°19' E 006°40'1111.3
2014-Aug-28 18:34N 37°18' E 006°26'1110.9
2014-Aug-28 17:33N 37°17' E 006°12'1110.8
2014-Aug-28 16:33N 37°17' E 005°58'1110.8
2014-Aug-28 15:33N 37°16' E 005°45'1111.1
2014-Aug-28 14:33N 37°15' E 005°31'1111.2
2014-Aug-28 13:33N 37°14' E 005°17'1111.4
2014-Aug-28 12:33N 37°14' E 005°03'1211.6
2014-Aug-28 11:33N 37°13' E 004°48'1211.6
2014-Aug-28 10:33N 37°13' E 004°33'1111.3
2014-Aug-28 09:33N 37°11' E 004°20'1211.7
2014-Aug-28 08:33N 37°08' E 004°05'1211.9
2014-Aug-28 07:33N 37°06' E 003°50'1212.1
2014-Aug-28 06:33N 37°05' E 003°35'1212.2
2014-Aug-28 05:33N 37°03' E 003°20'1212.0
2014-Aug-28 04:33N 37°01' E 003°05'1212.4
2014-Aug-28 03:33N 36°60' E 002°50'1212.5
2014-Aug-28 02:33N 36°58' E 002°35'1312.8
2014-Aug-28 01:33N 36°56' E 002°19'1212.4
2014-Aug-28 00:33N 36°54' E 002°03'1212.1
2014-Aug-27 23:33N 36°52' E 001°48'1212.0
2014-Aug-27 22:33N 36°50' E 001°34'1212.2
2014-Aug-27 21:33N 36°48' E 001°19'1212.2
2014-Aug-27 20:33N 36°46' E 001°03'1515.5
2014-Aug-27 19:34N 36°44' E 000°45'1010.0
2014-Aug-27 18:33N 36°43' E 000°32'1312.3
2014-Aug-27 17:30N 36°40' E 000°16'1411.7
2014-Aug-27 16:16N 36°38' W 000°02'2011.8
2014-Aug-27 14:33N 36°36' W 000°27'1211.8
2014-Aug-27 13:33N 36°34' W 000°41'1212.0
2014-Aug-27 12:33N 36°31' W 000°56'1212.2
2014-Aug-27 11:33N 36°30' W 001°11'1212.0
2014-Aug-27 10:33N 36°28' W 001°26'1211.8
2014-Aug-27 09:33N 36°26' W 001°40'1211.7
2014-Aug-27 08:33N 36°24' W 001°54'1212.1
2014-Aug-27 07:33N 36°22' W 002°09'15412.8
2014-Aug-26 19:33N 35°58' W 005°18'10612.9
2014-Aug-26 11:23N 36°04' W 007°28'1111.9
2014-Aug-26 10:28N 36°06' W 007°41'1112.2
2014-Aug-26 09:33N 36°07' W 007°55'1212.2
2014-Aug-26 08:33N 36°09' W 008°10'1212.0
2014-Aug-26 07:32N 36°12' W 008°25'1211.9
2014-Aug-26 06:33N 36°13' W 008°39'1212.2
2014-Aug-26 05:33N 36°15' W 008°54'1211.9
2014-Aug-26 04:32N 36°18' W 009°09'1411.3
2014-Aug-26 03:18N 36°20' W 009°26'3010.9
2014-Aug-26 00:33N 36°25' W 010°03'3411.4
2014-Aug-25 21:32N 36°30' W 010°45'1211.5
2014-Aug-25 20:31N 36°31' W 010°59'  
2014-Aug-23 03:33N 37°29' W 027°07'1212.1
2014-Aug-23 02:33N 37°29' W 027°23'1212.2
2014-Aug-23 01:33N 37°28' W 027°38'1211.7
2014-Aug-23 00:33N 37°28' W 027°53'1211.9
2014-Aug-22 23:33N 37°28' W 028°08'1212.2
2014-Aug-22 22:33N 37°29' W 028°23'1212.0
2014-Aug-22 21:33N 37°29' W 028°38'1211.8
2014-Aug-22 20:33N 37°28' W 028°53'1211.8
2014-Aug-22 19:33N 37°28' W 029°08'1211.7
2014-Aug-22 18:33N 37°27' W 029°23'1211.6
2014-Aug-22 17:33N 37°27' W 029°37'1111.1
2014-Aug-22 16:33N 37°27' W 029°51'1211.5
2014-Aug-22 15:33N 37°27' W 030°06'1111.4
2014-Aug-22 14:33N 37°26' W 030°20'1211.7
2014-Aug-22 13:33N 37°25' W 030°35'1211.5
2014-Aug-22 12:33N 37°24' W 030°49'1211.9
2014-Aug-22 11:33N 37°23' W 031°04'1212.0
2014-Aug-22 10:33N 37°22' W 031°19'1312.2
2014-Aug-22 09:31N 37°22' W 031°35'1211.7
2014-Aug-22 08:32N 37°21' W 031°49'1211.6
2014-Aug-22 07:33N 37°20' W 032°04'  
Track history (hours):
 
Tides and Currents Weather Stations Pressure Air Temp Water Temp Dewpoint Dewpoint Depression Visibility Wind Speed Wind Dir Waves Ship Positions

Solidarnosc (vanuatu)

Last reported at 2014-Aug-30 06:32 UTC. Time now 2014-Aug-30 22:30 UTC.
Position N 36°28' E 014°41'.

Length 229 m; beam 32 m.

Type: Ship. MMSI: 576005000.

Date/timePositionNaut miles runAvg speedWind from/ knotsBaromVisibWave heightAir tempDewpointWater temp
2014-Aug-30 06:32N 36°28' E 014°41'1111.1
2014-Aug-30 05:33N 36°32' E 014°29'1111.1
2014-Aug-30 04:33N 36°35' E 014°16'1111.0
2014-Aug-30 03:33N 36°37' E 014°02'1111.0
2014-Aug-30 02:33N 36°40' E 013°49'1111.1
2014-Aug-30 01:33N 36°43' E 013°36'1211.1
2014-Aug-30 00:28N 36°46' E 013°21'1011.2
2014-Aug-29 23:33N 36°48' E 013°09'1111.2
2014-Aug-29 22:33N 36°50' E 012°55'1111.1
2014-Aug-29 21:33N 36°53' E 012°41'1111.1
2014-Aug-29 20:33N 36°55' E 012°28'2310.9
2014-Aug-29 18:27N 37°01' E 012°00'1211.3
2014-Aug-29 17:21N 37°08' E 011°47'911.3
2014-Aug-29 16:33N 37°12' E 011°37'1211.2
2014-Aug-29 15:31N 37°17' E 011°24'1110.8
2014-Aug-29 14:29N 37°21' E 011°11'1111.2
2014-Aug-29 13:31N 37°24' E 010°58'1111.3
2014-Aug-29 12:33N 37°27' E 010°45'1111.3
2014-Aug-29 11:33N 37°30' E 010°31'1211.2
2014-Aug-29 10:31N 37°33' E 010°17'1611.1
2014-Aug-29 09:07N 37°33' E 009°57'5611.9
2014-Aug-29 04:23N 37°19' E 008°49'1411.9
2014-Aug-29 03:10N 37°19' E 008°30'711.7
2014-Aug-29 02:33N 37°19' E 008°22'1411.4
2014-Aug-29 01:22N 37°19' E 008°04'911.1
2014-Aug-29 00:33N 37°19' E 007°53'5811.7
2014-Aug-28 19:33N 37°19' E 006°40'1111.3
2014-Aug-28 18:34N 37°18' E 006°26'1110.9
2014-Aug-28 17:33N 37°17' E 006°12'1110.8
2014-Aug-28 16:33N 37°17' E 005°58'1110.8
2014-Aug-28 15:33N 37°16' E 005°45'1111.1
2014-Aug-28 14:33N 37°15' E 005°31'1111.2
2014-Aug-28 13:33N 37°14' E 005°17'1111.4
2014-Aug-28 12:33N 37°14' E 005°03'1211.6
2014-Aug-28 11:33N 37°13' E 004°48'1211.6
2014-Aug-28 10:33N 37°13' E 004°33'1111.3
2014-Aug-28 09:33N 37°11' E 004°20'1211.7
2014-Aug-28 08:33N 37°08' E 004°05'1211.9
2014-Aug-28 07:33N 37°06' E 003°50'1212.1
2014-Aug-28 06:33N 37°05' E 003°35'1212.2
2014-Aug-28 05:33N 37°03' E 003°20'1212.0
2014-Aug-28 04:33N 37°01' E 003°05'1212.4
2014-Aug-28 03:33N 36°60' E 002°50'1212.5
2014-Aug-28 02:33N 36°58' E 002°35'1312.8
2014-Aug-28 01:33N 36°56' E 002°19'1212.4
2014-Aug-28 00:33N 36°54' E 002°03'1212.1
2014-Aug-27 23:33N 36°52' E 001°48'1212.0
2014-Aug-27 22:33N 36°50' E 001°34'1212.2
2014-Aug-27 21:33N 36°48' E 001°19'1212.2
2014-Aug-27 20:33N 36°46' E 001°03'1515.5
2014-Aug-27 19:34N 36°44' E 000°45'1010.0
2014-Aug-27 18:33N 36°43' E 000°32'1312.3
2014-Aug-27 17:30N 36°40' E 000°16'1411.7
2014-Aug-27 16:16N 36°38' W 000°02'2011.8
2014-Aug-27 14:33N 36°36' W 000°27'1211.8
2014-Aug-27 13:33N 36°34' W 000°41'1212.0
2014-Aug-27 12:33N 36°31' W 000°56'1212.2
2014-Aug-27 11:33N 36°30' W 001°11'1212.0
2014-Aug-27 10:33N 36°28' W 001°26'1211.8
2014-Aug-27 09:33N 36°26' W 001°40'1211.7
2014-Aug-27 08:33N 36°24' W 001°54'1212.1
2014-Aug-27 07:33N 36°22' W 002°09'15412.8
2014-Aug-26 19:33N 35°58' W 005°18'10612.9
2014-Aug-26 11:23N 36°04' W 007°28'1111.9
2014-Aug-26 10:28N 36°06' W 007°41'1112.2
2014-Aug-26 09:33N 36°07' W 007°55'1212.2
2014-Aug-26 08:33N 36°09' W 008°10'1212.0
2014-Aug-26 07:32N 36°12' W 008°25'1211.9
2014-Aug-26 06:33N 36°13' W 008°39'1212.2
2014-Aug-26 05:33N 36°15' W 008°54'1211.9
2014-Aug-26 04:32N 36°18' W 009°09'1411.3
2014-Aug-26 03:18N 36°20' W 009°26'3010.9
2014-Aug-26 00:33N 36°25' W 010°03'3411.4
2014-Aug-25 21:32N 36°30' W 010°45'1211.5
2014-Aug-25 20:31N 36°31' W 010°59'  
2014-Aug-23 03:33N 37°29' W 027°07'1212.1
2014-Aug-23 02:33N 37°29' W 027°23'1212.2
2014-Aug-23 01:33N 37°28' W 027°38'1211.7
2014-Aug-23 00:33N 37°28' W 027°53'1211.9
2014-Aug-22 23:33N 37°28' W 028°08'1212.2
2014-Aug-22 22:33N 37°29' W 028°23'1212.0
2014-Aug-22 21:33N 37°29' W 028°38'1211.8
2014-Aug-22 20:33N 37°28' W 028°53'1211.8
2014-Aug-22 19:33N 37°28' W 029°08'1211.7
2014-Aug-22 18:33N 37°27' W 029°23'1211.6
2014-Aug-22 17:33N 37°27' W 029°37'1111.1
2014-Aug-22 16:33N 37°27' W 029°51'1211.5
2014-Aug-22 15:33N 37°27' W 030°06'1111.4
2014-Aug-22 14:33N 37°26' W 030°20'1211.7
2014-Aug-22 13:33N 37°25' W 030°35'1211.5
2014-Aug-22 12:33N 37°24' W 030°49'1211.9
2014-Aug-22 11:33N 37°23' W 031°04'1212.0
2014-Aug-22 10:33N 37°22' W 031°19'1312.2
2014-Aug-22 09:31N 37°22' W 031°35'1211.7
2014-Aug-22 08:32N 37°21' W 031°49'1211.6
2014-Aug-22 07:33N 37°20' W 032°04'  

Dump ship's entire track history